sensor_id;sensor_type;location;lat;lon;timestamp;temperature;humidity
6538;DHT22;3302;52.508;13.454;2022-08-23T00:01:21;19.00;99.90
6538;DHT22;3302;52.508;13.454;2022-08-23T00:03:48;19.10;99.90
6538;DHT22;3302;52.508;13.454;2022-08-23T00:06:14;19.10;99.90
6538;DHT22;3302;52.508;13.454;2022-08-23T00:08:40;19.00;99.90
6538;DHT22;3302;52.508;13.454;2022-08-23T00:11:33;19.10;99.90
6538;DHT22;3302;52.508;13.454;2022-08-23T00:14:04;18.90;99.90
6538;DHT22;3302;52.508;13.454;2022-08-23T00:16:31;18.90;99.90
6538;DHT22;3302;52.508;13.454;2022-08-23T00:18:57;19.00;99.90
6538;DHT22;3302;52.508;13.454;2022-08-23T00:21:23;18.90;99.90
6538;DHT22;3302;52.508;13.454;2022-08-23T00:23:49;19.00;99.90
6538;DHT22;3302;52.508;13.454;2022-08-23T00:26:15;18.90;99.90
6538;DHT22;3302;52.508;13.454;2022-08-23T00:28:42;19.00;99.90
6538;DHT22;3302;52.508;13.454;2022-08-23T00:31:08;18.90;99.90
6538;DHT22;3302;52.508;13.454;2022-08-23T00:33:33;18.90;99.90
6538;DHT22;3302;52.508;13.454;2022-08-23T00:35:59;18.90;99.90
6538;DHT22;3302;52.508;13.454;2022-08-23T00:38:25;19.00;99.90
6538;DHT22;3302;52.508;13.454;2022-08-23T00:40:52;19.00;99.90
6538;DHT22;3302;52.508;13.454;2022-08-23T00:43:25;18.90;99.90
6538;DHT22;3302;52.508;13.454;2022-08-23T00:49:23;18.90;99.90
6538;DHT22;3302;52.508;13.454;2022-08-23T00:52:09;18.90;99.90
6538;DHT22;3302;52.508;13.454;2022-08-23T00:54:39;18.90;99.90
6538;DHT22;3302;52.508;13.454;2022-08-23T00:57:11;18.80;99.90
6538;DHT22;3302;52.508;13.454;2022-08-23T00:59:38;18.80;99.90
6538;DHT22;3302;52.508;13.454;2022-08-23T01:02:04;18.80;99.90
6538;DHT22;3302;52.508;13.454;2022-08-23T01:04:35;18.80;99.90
6538;DHT22;3302;52.508;13.454;2022-08-23T01:07:03;18.70;99.90
6538;DHT22;3302;52.508;13.454;2022-08-23T01:09:31;18.70;99.90
6538;DHT22;3302;52.508;13.454;2022-08-23T01:12:10;18.70;99.90
6538;DHT22;3302;52.508;13.454;2022-08-23T01:14:46;18.70;99.90
6538;DHT22;3302;52.508;13.454;2022-08-23T01:17:27;18.60;99.90
6538;DHT22;3302;52.508;13.454;2022-08-23T01:20:01;18.70;99.90
6538;DHT22;3302;52.508;13.454;2022-08-23T01:25:09;18.70;99.90
6538;DHT22;3302;52.508;13.454;2022-08-23T01:27:36;18.60;99.90
6538;DHT22;3302;52.508;13.454;2022-08-23T01:30:09;18.60;99.90
6538;DHT22;3302;52.508;13.454;2022-08-23T01:32:41;18.60;99.90
6538;DHT22;3302;52.508;13.454;2022-08-23T01:35:09;18.60;99.90
6538;DHT22;3302;52.508;13.454;2022-08-23T01:37:35;18.50;99.90
6538;DHT22;3302;52.508;13.454;2022-08-23T01:40:00;18.60;99.90
6538;DHT22;3302;52.508;13.454;2022-08-23T01:42:26;18.70;99.90
6538;DHT22;3302;52.508;13.454;2022-08-23T01:44:53;18.60;99.90
6538;DHT22;3302;52.508;13.454;2022-08-23T01:47:19;18.60;99.90
6538;DHT22;3302;52.508;13.454;2022-08-23T01:49:44;18.60;99.90
6538;DHT22;3302;52.508;13.454;2022-08-23T01:52:10;18.50;99.90
6538;DHT22;3302;52.508;13.454;2022-08-23T01:54:36;18.40;99.90
6538;DHT22;3302;52.508;13.454;2022-08-23T01:57:02;18.50;99.90
6538;DHT22;3302;52.508;13.454;2022-08-23T01:59:29;18.60;99.90
6538;DHT22;3302;52.508;13.454;2022-08-23T02:01:55;18.50;99.90
6538;DHT22;3302;52.508;13.454;2022-08-23T02:04:21;18.50;99.90
6538;DHT22;3302;52.508;13.454;2022-08-23T02:06:47;18.40;99.90
6538;DHT22;3302;52.508;13.454;2022-08-23T02:09:13;18.50;99.90
6538;DHT22;3302;52.508;13.454;2022-08-23T02:11:40;18.50;99.90
6538;DHT22;3302;52.508;13.454;2022-08-23T02:14:13;18.50;99.90
6538;DHT22;3302;52.508;13.454;2022-08-23T02:16:42;18.40;99.90
6538;DHT22;3302;52.508;13.454;2022-08-23T02:19:10;18.40;99.90
6538;DHT22;3302;52.508;13.454;2022-08-23T02:21:37;18.40;99.90
6538;DHT22;3302;52.508;13.454;2022-08-23T02:24:13;18.40;99.90
6538;DHT22;3302;52.508;13.454;2022-08-23T02:26:44;18.40;99.90
6538;DHT22;3302;52.508;13.454;2022-08-23T02:29:12;18.40;99.90
6538;DHT22;3302;52.508;13.454;2022-08-23T02:31:37;18.40;99.90
6538;DHT22;3302;52.508;13.454;2022-08-23T02:34:04;18.30;99.90
6538;DHT22;3302;52.508;13.454;2022-08-23T02:36:30;18.40;99.90
6538;DHT22;3302;52.508;13.454;2022-08-23T02:38:56;18.40;99.90
6538;DHT22;3302;52.508;13.454;2022-08-23T02:41:23;18.40;99.90
6538;DHT22;3302;52.508;13.454;2022-08-23T02:43:52;18.30;99.90
6538;DHT22;3302;52.508;13.454;2022-08-23T02:46:19;18.30;99.90
6538;DHT22;3302;52.508;13.454;2022-08-23T02:48:46;18.30;99.90
6538;DHT22;3302;52.508;13.454;2022-08-23T02:51:11;18.30;99.90
6538;DHT22;3302;52.508;13.454;2022-08-23T02:53:37;18.30;99.90
6538;DHT22;3302;52.508;13.454;2022-08-23T02:56:03;18.30;99.90
6538;DHT22;3302;52.508;13.454;2022-08-23T02:58:29;18.30;99.90
6538;DHT22;3302;52.508;13.454;2022-08-23T03:00:55;18.20;99.90
6538;DHT22;3302;52.508;13.454;2022-08-23T03:03:21;18.20;99.90
6538;DHT22;3302;52.508;13.454;2022-08-23T03:05:47;18.30;99.90
6538;DHT22;3302;52.508;13.454;2022-08-23T03:08:13;18.40;99.90
6538;DHT22;3302;52.508;13.454;2022-08-23T03:10:44;18.30;99.90
6538;DHT22;3302;52.508;13.454;2022-08-23T03:13:10;18.30;99.90
6538;DHT22;3302;52.508;13.454;2022-08-23T03:15:37;18.30;99.90
6538;DHT22;3302;52.508;13.454;2022-08-23T03:18:03;18.30;99.90
6538;DHT22;3302;52.508;13.454;2022-08-23T03:20:29;18.30;99.90
6538;DHT22;3302;52.508;13.454;2022-08-23T03:22:55;18.30;99.90
6538;DHT22;3302;52.508;13.454;2022-08-23T03:25:22;18.30;99.90
6538;DHT22;3302;52.508;13.454;2022-08-23T03:27:47;18.20;99.90
6538;DHT22;3302;52.508;13.454;2022-08-23T03:30:13;18.30;99.90
6538;DHT22;3302;52.508;13.454;2022-08-23T03:32:39;18.40;99.90
6538;DHT22;3302;52.508;13.454;2022-08-23T03:35:06;18.30;99.90
6538;DHT22;3302;52.508;13.454;2022-08-23T03:37:32;18.30;99.90
6538;DHT22;3302;52.508;13.454;2022-08-23T03:39:58;18.30;99.90
6538;DHT22;3302;52.508;13.454;2022-08-23T03:42:24;18.30;99.90
6538;DHT22;3302;52.508;13.454;2022-08-23T03:44:50;18.30;99.90
6538;DHT22;3302;52.508;13.454;2022-08-23T03:47:16;18.30;99.90
6538;DHT22;3302;52.508;13.454;2022-08-23T03:49:42;18.30;99.90
6538;DHT22;3302;52.508;13.454;2022-08-23T03:52:08;18.30;99.90
6538;DHT22;3302;52.508;13.454;2022-08-23T03:54:34;18.40;99.90
6538;DHT22;3302;52.508;13.454;2022-08-23T03:57:05;18.30;99.90
6538;DHT22;3302;52.508;13.454;2022-08-23T03:59:33;18.40;99.90
6538;DHT22;3302;52.508;13.454;2022-08-23T04:01:59;18.30;99.90
6538;DHT22;3302;52.508;13.454;2022-08-23T04:04:25;18.20;99.90
6538;DHT22;3302;52.508;13.454;2022-08-23T04:06:52;18.30;99.90
6538;DHT22;3302;52.508;13.454;2022-08-23T04:09:18;18.30;99.90
6538;DHT22;3302;52.508;13.454;2022-08-23T04:11:44;18.30;99.90
6538;DHT22;3302;52.508;13.454;2022-08-23T04:14:09;18.30;99.90
6538;DHT22;3302;52.508;13.454;2022-08-23T04:16:37;18.30;99.90
6538;DHT22;3302;52.508;13.454;2022-08-23T04:19:10;18.30;99.90
6538;DHT22;3302;52.508;13.454;2022-08-23T04:21:42;18.20;99.90
6538;DHT22;3302;52.508;13.454;2022-08-23T04:24:08;18.10;99.90
6538;DHT22;3302;52.508;13.454;2022-08-23T04:26:34;18.10;99.90
6538;DHT22;3302;52.508;13.454;2022-08-23T04:29:00;18.20;99.90
6538;DHT22;3302;52.508;13.454;2022-08-23T04:31:26;18.10;99.90
6538;DHT22;3302;52.508;13.454;2022-08-23T04:33:53;18.10;99.90
6538;DHT22;3302;52.508;13.454;2022-08-23T04:36:19;18.20;99.90
6538;DHT22;3302;52.508;13.454;2022-08-23T04:38:45;18.20;99.90
6538;DHT22;3302;52.508;13.454;2022-08-23T04:41:11;18.20;99.90
6538;DHT22;3302;52.508;13.454;2022-08-23T04:43:56;18.20;99.90
6538;DHT22;3302;52.508;13.454;2022-08-23T04:46:22;18.30;99.90
6538;DHT22;3302;52.508;13.454;2022-08-23T04:48:48;18.20;99.90
6538;DHT22;3302;52.508;13.454;2022-08-23T04:51:14;18.20;99.90
6538;DHT22;3302;52.508;13.454;2022-08-23T04:53:40;18.20;99.90
6538;DHT22;3302;52.508;13.454;2022-08-23T04:56:07;18.20;99.90
6538;DHT22;3302;52.508;13.454;2022-08-23T04:58:34;18.20;99.90
6538;DHT22;3302;52.508;13.454;2022-08-23T05:01:04;18.20;99.90
6538;DHT22;3302;52.508;13.454;2022-08-23T05:03:33;18.20;99.90
6538;DHT22;3302;52.508;13.454;2022-08-23T05:05:59;18.20;99.90
6538;DHT22;3302;52.508;13.454;2022-08-23T05:08:26;18.20;99.90
6538;DHT22;3302;52.508;13.454;2022-08-23T05:10:52;18.20;99.90
6538;DHT22;3302;52.508;13.454;2022-08-23T05:13:18;18.30;99.90
6538;DHT22;3302;52.508;13.454;2022-08-23T05:15:44;18.20;99.90
6538;DHT22;3302;52.508;13.454;2022-08-23T05:18:10;18.20;99.90
6538;DHT22;3302;52.508;13.454;2022-08-23T05:20:37;18.10;99.90
6538;DHT22;3302;52.508;13.454;2022-08-23T05:23:03;18.20;99.90
6538;DHT22;3302;52.508;13.454;2022-08-23T05:25:30;18.20;99.90
6538;DHT22;3302;52.508;13.454;2022-08-23T05:28:25;18.30;99.90
6538;DHT22;3302;52.508;13.454;2022-08-23T05:33:26;18.30;99.90
6538;DHT22;3302;52.508;13.454;2022-08-23T05:35:52;18.30;99.90
6538;DHT22;3302;52.508;13.454;2022-08-23T05:38:19;18.30;99.90
6538;DHT22;3302;52.508;13.454;2022-08-23T05:40:51;18.30;99.90
6538;DHT22;3302;52.508;13.454;2022-08-23T05:43:18;18.30;99.90
6538;DHT22;3302;52.508;13.454;2022-08-23T05:45:44;18.40;99.90
6538;DHT22;3302;52.508;13.454;2022-08-23T05:48:11;18.40;99.90
6538;DHT22;3302;52.508;13.454;2022-08-23T05:50:38;18.30;99.90
6538;DHT22;3302;52.508;13.454;2022-08-23T05:53:05;18.40;99.90
6538;DHT22;3302;52.508;13.454;2022-08-23T05:55:31;18.50;99.90
6538;DHT22;3302;52.508;13.454;2022-08-23T05:57:58;18.60;99.90
6538;DHT22;3302;52.508;13.454;2022-08-23T06:00:25;18.60;99.90
6538;DHT22;3302;52.508;13.454;2022-08-23T06:02:52;18.60;99.90
6538;DHT22;3302;52.508;13.454;2022-08-23T06:05:19;18.50;99.90
6538;DHT22;3302;52.508;13.454;2022-08-23T06:07:45;18.50;99.90
6538;DHT22;3302;52.508;13.454;2022-08-23T06:10:11;18.60;99.90
6538;DHT22;3302;52.508;13.454;2022-08-23T06:12:37;18.70;99.90
6538;DHT22;3302;52.508;13.454;2022-08-23T06:15:03;18.60;99.90
6538;DHT22;3302;52.508;13.454;2022-08-23T06:17:29;18.70;99.90
6538;DHT22;3302;52.508;13.454;2022-08-23T06:19:56;18.70;99.90
6538;DHT22;3302;52.508;13.454;2022-08-23T06:22:21;18.60;99.90
6538;DHT22;3302;52.508;13.454;2022-08-23T06:24:48;18.70;99.90
6538;DHT22;3302;52.508;13.454;2022-08-23T06:27:14;18.70;99.90
6538;DHT22;3302;52.508;13.454;2022-08-23T06:29:39;18.80;99.90
6538;DHT22;3302;52.508;13.454;2022-08-23T06:32:05;18.80;99.90
6538;DHT22;3302;52.508;13.454;2022-08-23T06:34:36;18.90;99.90
6538;DHT22;3302;52.508;13.454;2022-08-23T06:37:08;19.00;99.90
6538;DHT22;3302;52.508;13.454;2022-08-23T06:39:35;19.00;99.90
6538;DHT22;3302;52.508;13.454;2022-08-23T06:42:10;19.00;99.90
6538;DHT22;3302;52.508;13.454;2022-08-23T06:44:37;19.00;99.90
6538;DHT22;3302;52.508;13.454;2022-08-23T06:47:04;19.10;99.90
6538;DHT22;3302;52.508;13.454;2022-08-23T06:49:30;19.10;99.90
6538;DHT22;3302;52.508;13.454;2022-08-23T06:51:57;19.20;99.90
6538;DHT22;3302;52.508;13.454;2022-08-23T06:54:30;19.30;99.90
6538;DHT22;3302;52.508;13.454;2022-08-23T06:56:57;19.40;99.90
6538;DHT22;3302;52.508;13.454;2022-08-23T06:59:25;19.50;99.90
6538;DHT22;3302;52.508;13.454;2022-08-23T07:02:00;19.50;99.90
6538;DHT22;3302;52.508;13.454;2022-08-23T07:04:29;19.50;99.90
6538;DHT22;3302;52.508;13.454;2022-08-23T07:06:55;19.50;99.90
6538;DHT22;3302;52.508;13.454;2022-08-23T07:09:22;19.60;99.90
6538;DHT22;3302;52.508;13.454;2022-08-23T07:11:48;19.60;99.90
6538;DHT22;3302;52.508;13.454;2022-08-23T07:14:16;19.60;99.90
6538;DHT22;3302;52.508;13.454;2022-08-23T07:16:45;19.60;99.90
6538;DHT22;3302;52.508;13.454;2022-08-23T07:19:13;19.70;99.90
6538;DHT22;3302;52.508;13.454;2022-08-23T07:21:41;19.80;99.90
6538;DHT22;3302;52.508;13.454;2022-08-23T07:24:07;19.80;99.90
6538;DHT22;3302;52.508;13.454;2022-08-23T07:26:34;19.90;99.90
6538;DHT22;3302;52.508;13.454;2022-08-23T07:29:05;20.00;99.90
6538;DHT22;3302;52.508;13.454;2022-08-23T07:31:33;20.00;99.90
6538;DHT22;3302;52.508;13.454;2022-08-23T07:34:02;20.00;99.90
6538;DHT22;3302;52.508;13.454;2022-08-23T07:36:30;20.00;99.90
6538;DHT22;3302;52.508;13.454;2022-08-23T07:38:57;20.00;99.90
6538;DHT22;3302;52.508;13.454;2022-08-23T07:41:25;20.10;99.90
6538;DHT22;3302;52.508;13.454;2022-08-23T07:43:58;20.20;99.90
6538;DHT22;3302;52.508;13.454;2022-08-23T07:46:27;20.20;99.90
6538;DHT22;3302;52.508;13.454;2022-08-23T07:48:56;20.30;99.90
6538;DHT22;3302;52.508;13.454;2022-08-23T07:51:23;20.30;99.90
6538;DHT22;3302;52.508;13.454;2022-08-23T07:53:49;20.40;99.90
6538;DHT22;3302;52.508;13.454;2022-08-23T07:56:17;20.40;99.90
6538;DHT22;3302;52.508;13.454;2022-08-23T07:58:43;20.50;99.90
6538;DHT22;3302;52.508;13.454;2022-08-23T08:01:17;20.50;99.90
6538;DHT22;3302;52.508;13.454;2022-08-23T08:03:45;20.50;99.90
6538;DHT22;3302;52.508;13.454;2022-08-23T08:06:42;20.60;99.90
6538;DHT22;3302;52.508;13.454;2022-08-23T08:09:09;20.60;99.90
6538;DHT22;3302;52.508;13.454;2022-08-23T08:11:36;20.60;99.90
6538;DHT22;3302;52.508;13.454;2022-08-23T08:14:05;20.60;99.90
6538;DHT22;3302;52.508;13.454;2022-08-23T08:16:34;20.70;99.90
6538;DHT22;3302;52.508;13.454;2022-08-23T08:19:02;20.80;99.90
6538;DHT22;3302;52.508;13.454;2022-08-23T08:21:28;20.90;99.90
6538;DHT22;3302;52.508;13.454;2022-08-23T08:23:56;20.90;99.90
6538;DHT22;3302;52.508;13.454;2022-08-23T08:26:22;21.00;99.90
6538;DHT22;3302;52.508;13.454;2022-08-23T08:28:49;21.10;99.90
6538;DHT22;3302;52.508;13.454;2022-08-23T08:31:15;21.10;99.90
6538;DHT22;3302;52.508;13.454;2022-08-23T08:33:41;21.10;99.90
6538;DHT22;3302;52.508;13.454;2022-08-23T08:36:07;21.20;99.90
6538;DHT22;3302;52.508;13.454;2022-08-23T08:38:37;21.30;99.90
6538;DHT22;3302;52.508;13.454;2022-08-23T08:41:15;21.30;99.90
6538;DHT22;3302;52.508;13.454;2022-08-23T08:44:13;21.30;99.90
6538;DHT22;3302;52.508;13.454;2022-08-23T08:46:51;21.40;99.90
6538;DHT22;3302;52.508;13.454;2022-08-23T08:52:25;21.50;99.90
6538;DHT22;3302;52.508;13.454;2022-08-23T08:55:04;21.50;99.90
6538;DHT22;3302;52.508;13.454;2022-08-23T08:57:38;21.50;99.90
6538;DHT22;3302;52.508;13.454;2022-08-23T09:00:18;21.50;99.90
6538;DHT22;3302;52.508;13.454;2022-08-23T09:02:45;21.60;99.90
6538;DHT22;3302;52.508;13.454;2022-08-23T09:05:27;21.70;99.90
6538;DHT22;3302;52.508;13.454;2022-08-23T09:10:54;21.80;99.90
6538;DHT22;3302;52.508;13.454;2022-08-23T09:16:36;21.70;99.90
6538;DHT22;3302;52.508;13.454;2022-08-23T09:19:04;21.80;99.90
6538;DHT22;3302;52.508;13.454;2022-08-23T09:22:03;21.90;99.90
6538;DHT22;3302;52.508;13.454;2022-08-23T09:24:31;21.80;99.90
6538;DHT22;3302;52.508;13.454;2022-08-23T09:26:57;21.90;99.90
6538;DHT22;3302;52.508;13.454;2022-08-23T09:29:26;21.90;99.90
6538;DHT22;3302;52.508;13.454;2022-08-23T09:31:55;22.00;99.90
6538;DHT22;3302;52.508;13.454;2022-08-23T09:37:23;21.90;99.90
6538;DHT22;3302;52.508;13.454;2022-08-23T09:43:17;22.00;99.90
6538;DHT22;3302;52.508;13.454;2022-08-23T09:51:06;22.10;99.90
6538;DHT22;3302;52.508;13.454;2022-08-23T09:53:36;22.10;99.90
6538;DHT22;3302;52.508;13.454;2022-08-23T09:56:16;22.20;99.90
6538;DHT22;3302;52.508;13.454;2022-08-23T09:58:46;22.20;99.90
6538;DHT22;3302;52.508;13.454;2022-08-23T10:01:27;22.20;99.90
6538;DHT22;3302;52.508;13.454;2022-08-23T10:04:11;22.30;99.90
6538;DHT22;3302;52.508;13.454;2022-08-23T10:06:37;22.30;99.90
6538;DHT22;3302;52.508;13.454;2022-08-23T10:09:05;22.30;99.90
6538;DHT22;3302;52.508;13.454;2022-08-23T10:11:43;22.40;99.90
6538;DHT22;3302;52.508;13.454;2022-08-23T10:14:13;22.20;99.90
6538;DHT22;3302;52.508;13.454;2022-08-23T10:17:07;22.30;99.90
6538;DHT22;3302;52.508;13.454;2022-08-23T10:22:40;22.50;99.90
6538;DHT22;3302;52.508;13.454;2022-08-23T10:25:30;22.50;99.90
6538;DHT22;3302;52.508;13.454;2022-08-23T10:28:30;22.70;99.90
6538;DHT22;3302;52.508;13.454;2022-08-23T10:39:26;22.90;99.90
6538;DHT22;3302;52.508;13.454;2022-08-23T10:44:34;23.00;99.70
6538;DHT22;3302;52.508;13.454;2022-08-23T10:50:08;23.00;99.50
6538;DHT22;3302;52.508;13.454;2022-08-23T10:52:54;23.10;99.50
6538;DHT22;3302;52.508;13.454;2022-08-23T10:55:28;23.20;98.80
6538;DHT22;3302;52.508;13.454;2022-08-23T10:58:14;23.30;98.30
6538;DHT22;3302;52.508;13.454;2022-08-23T11:00:41;23.40;97.80
6538;DHT22;3302;52.508;13.454;2022-08-23T11:06:24;23.40;97.30
6538;DHT22;3302;52.508;13.454;2022-08-23T11:11:48;23.40;96.60
6538;DHT22;3302;52.508;13.454;2022-08-23T11:16:56;23.30;97.50
6538;DHT22;3302;52.508;13.454;2022-08-23T11:19:47;23.20;97.60
6538;DHT22;3302;52.508;13.454;2022-08-23T11:22:34;23.40;97.20
6538;DHT22;3302;52.508;13.454;2022-08-23T11:27:44;23.60;96.70
6538;DHT22;3302;52.508;13.454;2022-08-23T11:35:41;23.60;97.40
6538;DHT22;3302;52.508;13.454;2022-08-23T11:38:09;23.70;96.40
6538;DHT22;3302;52.508;13.454;2022-08-23T11:40:57;23.60;96.20
6538;DHT22;3302;52.508;13.454;2022-08-23T11:43:29;23.50;96.40
6538;DHT22;3302;52.508;13.454;2022-08-23T11:54:44;23.70;94.80
6538;DHT22;3302;52.508;13.454;2022-08-23T12:00:08;23.70;95.00
6538;DHT22;3302;52.508;13.454;2022-08-23T12:02:43;23.90;94.40
6538;DHT22;3302;52.508;13.454;2022-08-23T12:23:52;24.40;91.70
6538;DHT22;3302;52.508;13.454;2022-08-23T12:26:24;24.50;90.90
6538;DHT22;3302;52.508;13.454;2022-08-23T12:29:02;24.60;91.00
6538;DHT22;3302;52.508;13.454;2022-08-23T12:31:31;24.30;91.10
6538;DHT22;3302;52.508;13.454;2022-08-23T12:36:55;24.20;91.60
6538;DHT22;3302;52.508;13.454;2022-08-23T12:39:32;24.50;91.00
6538;DHT22;3302;52.508;13.454;2022-08-23T12:42:09;24.50;90.60
6538;DHT22;3302;52.508;13.454;2022-08-23T12:44:36;24.70;90.80
6538;DHT22;3302;52.508;13.454;2022-08-23T12:47:12;24.70;91.00
6538;DHT22;3302;52.508;13.454;2022-08-23T12:49:38;24.80;91.00
6538;DHT22;3302;52.508;13.454;2022-08-23T12:52:11;24.80;91.20
6538;DHT22;3302;52.508;13.454;2022-08-23T12:54:40;24.80;91.30
6538;DHT22;3302;52.508;13.454;2022-08-23T12:57:13;24.60;91.90
6538;DHT22;3302;52.508;13.454;2022-08-23T13:02:27;24.40;92.00
6538;DHT22;3302;52.508;13.454;2022-08-23T13:05:11;24.50;91.00
6538;DHT22;3302;52.508;13.454;2022-08-23T13:07:38;24.50;91.40
6538;DHT22;3302;52.508;13.454;2022-08-23T13:10:06;24.30;90.40
6538;DHT22;3302;52.508;13.454;2022-08-23T13:12:33;24.30;90.60
6538;DHT22;3302;52.508;13.454;2022-08-23T13:15:00;24.10;90.00
6538;DHT22;3302;52.508;13.454;2022-08-23T13:20:15;24.20;89.50
6538;DHT22;3302;52.508;13.454;2022-08-23T13:22:58;24.40;86.80
6538;DHT22;3302;52.508;13.454;2022-08-23T13:25:28;24.50;85.40
6538;DHT22;3302;52.508;13.454;2022-08-23T13:28:04;24.60;86.40
6538;DHT22;3302;52.508;13.454;2022-08-23T13:30:34;24.60;85.80
6538;DHT22;3302;52.508;13.454;2022-08-23T13:35:38;24.80;85.90
6538;DHT22;3302;52.508;13.454;2022-08-23T13:45:56;24.90;82.00
6538;DHT22;3302;52.508;13.454;2022-08-23T13:48:24;25.10;81.60
6538;DHT22;3302;52.508;13.454;2022-08-23T13:50:52;25.10;83.50
6538;DHT22;3302;52.508;13.454;2022-08-23T13:53:18;25.30;83.30
6538;DHT22;3302;52.508;13.454;2022-08-23T13:55:51;25.30;82.10
6538;DHT22;3302;52.508;13.454;2022-08-23T13:58:32;25.20;82.10
6538;DHT22;3302;52.508;13.454;2022-08-23T14:00:59;25.30;84.20
6538;DHT22;3302;52.508;13.454;2022-08-23T14:03:27;25.20;84.40
6538;DHT22;3302;52.508;13.454;2022-08-23T14:05:53;25.20;85.10
6538;DHT22;3302;52.508;13.454;2022-08-23T14:08:19;24.90;86.10
6538;DHT22;3302;52.508;13.454;2022-08-23T14:10:46;24.90;88.20
6538;DHT22;3302;52.508;13.454;2022-08-23T14:13:13;25.00;87.00
6538;DHT22;3302;52.508;13.454;2022-08-23T14:15:41;25.10;86.70
6538;DHT22;3302;52.508;13.454;2022-08-23T14:18:09;25.00;86.80
6538;DHT22;3302;52.508;13.454;2022-08-23T14:20:36;25.00;88.50
6538;DHT22;3302;52.508;13.454;2022-08-23T14:23:02;25.00;88.50
6538;DHT22;3302;52.508;13.454;2022-08-23T14:25:28;25.00;89.10
6538;DHT22;3302;52.508;13.454;2022-08-23T14:27:53;24.90;90.20
6538;DHT22;3302;52.508;13.454;2022-08-23T14:30:30;25.00;88.60
6538;DHT22;3302;52.508;13.454;2022-08-23T14:32:56;24.90;88.60
6538;DHT22;3302;52.508;13.454;2022-08-23T14:35:22;24.80;88.30
6538;DHT22;3302;52.508;13.454;2022-08-23T14:37:48;24.80;89.10
6538;DHT22;3302;52.508;13.454;2022-08-23T14:40:15;24.60;90.00
6538;DHT22;3302;52.508;13.454;2022-08-23T14:42:42;24.70;90.20
6538;DHT22;3302;52.508;13.454;2022-08-23T14:45:08;24.80;89.70
6538;DHT22;3302;52.508;13.454;2022-08-23T14:47:34;24.80;90.00
6538;DHT22;3302;52.508;13.454;2022-08-23T14:50:02;24.70;90.70
6538;DHT22;3302;52.508;13.454;2022-08-23T14:52:28;24.60;90.60
6538;DHT22;3302;52.508;13.454;2022-08-23T14:54:53;24.70;90.70
6538;DHT22;3302;52.508;13.454;2022-08-23T14:57:19;24.90;90.60
6538;DHT22;3302;52.508;13.454;2022-08-23T14:59:45;25.30;89.50
6538;DHT22;3302;52.508;13.454;2022-08-23T15:02:12;25.50;89.70
6538;DHT22;3302;52.508;13.454;2022-08-23T15:04:40;25.40;89.50
6538;DHT22;3302;52.508;13.454;2022-08-23T15:07:06;25.50;89.80
6538;DHT22;3302;52.508;13.454;2022-08-23T15:09:33;25.40;88.60
6538;DHT22;3302;52.508;13.454;2022-08-23T15:11:58;25.30;87.40
6538;DHT22;3302;52.508;13.454;2022-08-23T15:14:24;25.20;86.80
6538;DHT22;3302;52.508;13.454;2022-08-23T15:16:50;25.20;87.60
6538;DHT22;3302;52.508;13.454;2022-08-23T15:19:16;25.20;88.10
6538;DHT22;3302;52.508;13.454;2022-08-23T15:21:41;25.10;88.60
6538;DHT22;3302;52.508;13.454;2022-08-23T15:24:07;25.00;90.00
6538;DHT22;3302;52.508;13.454;2022-08-23T15:26:33;24.80;90.60
6538;DHT22;3302;52.508;13.454;2022-08-23T15:29:00;24.60;91.20
6538;DHT22;3302;52.508;13.454;2022-08-23T15:31:26;24.90;90.90
6538;DHT22;3302;52.508;13.454;2022-08-23T15:33:52;25.10;91.00
6538;DHT22;3302;52.508;13.454;2022-08-23T15:36:18;25.40;90.70
6538;DHT22;3302;52.508;13.454;2022-08-23T15:38:45;25.60;89.00
6538;DHT22;3302;52.508;13.454;2022-08-23T15:41:13;25.60;87.40
6538;DHT22;3302;52.508;13.454;2022-08-23T15:43:39;26.00;87.80
6538;DHT22;3302;52.508;13.454;2022-08-23T15:46:16;26.20;86.90
6538;DHT22;3302;52.508;13.454;2022-08-23T15:49:04;26.40;84.80
6538;DHT22;3302;52.508;13.454;2022-08-23T15:51:30;26.10;85.20
6538;DHT22;3302;52.508;13.454;2022-08-23T15:53:56;26.30;83.00
6538;DHT22;3302;52.508;13.454;2022-08-23T15:56:29;26.60;83.10
6538;DHT22;3302;52.508;13.454;2022-08-23T15:58:56;26.70;81.00
6538;DHT22;3302;52.508;13.454;2022-08-23T16:01:22;27.10;80.20
6538;DHT22;3302;52.508;13.454;2022-08-23T16:03:50;27.20;79.60
6538;DHT22;3302;52.508;13.454;2022-08-23T16:06:16;27.30;79.60
6538;DHT22;3302;52.508;13.454;2022-08-23T16:08:44;27.10;79.20
6538;DHT22;3302;52.508;13.454;2022-08-23T16:11:11;27.20;79.00
6538;DHT22;3302;52.508;13.454;2022-08-23T16:13:42;27.40;77.60
6538;DHT22;3302;52.508;13.454;2022-08-23T16:16:30;27.30;78.80
6538;DHT22;3302;52.508;13.454;2022-08-23T16:18:58;27.40;76.90
6538;DHT22;3302;52.508;13.454;2022-08-23T16:21:25;27.00;77.90
6538;DHT22;3302;52.508;13.454;2022-08-23T16:23:53;26.80;78.90
6538;DHT22;3302;52.508;13.454;2022-08-23T16:26:21;26.60;80.20
6538;DHT22;3302;52.508;13.454;2022-08-23T16:28:51;26.60;79.70
6538;DHT22;3302;52.508;13.454;2022-08-23T16:31:17;26.00;82.70
6538;DHT22;3302;52.508;13.454;2022-08-23T16:33:43;25.80;84.20
6538;DHT22;3302;52.508;13.454;2022-08-23T16:36:09;25.80;83.60
6538;DHT22;3302;52.508;13.454;2022-08-23T16:38:36;25.90;84.90
6538;DHT22;3302;52.508;13.454;2022-08-23T16:41:03;25.90;85.00
6538;DHT22;3302;52.508;13.454;2022-08-23T16:43:29;25.90;84.80
6538;DHT22;3302;52.508;13.454;2022-08-23T16:45:54;25.90;84.90
6538;DHT22;3302;52.508;13.454;2022-08-23T16:48:20;25.70;85.40
6538;DHT22;3302;52.508;13.454;2022-08-23T16:50:46;25.60;86.30
6538;DHT22;3302;52.508;13.454;2022-08-23T16:53:13;25.50;85.50
6538;DHT22;3302;52.508;13.454;2022-08-23T16:55:40;25.50;86.70
6538;DHT22;3302;52.508;13.454;2022-08-23T16:58:06;25.40;86.50
6538;DHT22;3302;52.508;13.454;2022-08-23T17:00:33;25.40;87.20
6538;DHT22;3302;52.508;13.454;2022-08-23T17:02:59;25.20;87.40
6538;DHT22;3302;52.508;13.454;2022-08-23T17:05:25;25.30;89.20
6538;DHT22;3302;52.508;13.454;2022-08-23T17:07:51;25.00;89.10
6538;DHT22;3302;52.508;13.454;2022-08-23T17:10:20;25.00;89.00
6538;DHT22;3302;52.508;13.454;2022-08-23T17:12:49;24.90;88.90
6538;DHT22;3302;52.508;13.454;2022-08-23T17:15:20;25.00;89.00
6538;DHT22;3302;52.508;13.454;2022-08-23T17:17:47;24.80;90.00
6538;DHT22;3302;52.508;13.454;2022-08-23T17:20:13;24.80;90.10
6538;DHT22;3302;52.508;13.454;2022-08-23T17:22:40;24.70;90.10
6538;DHT22;3302;52.508;13.454;2022-08-23T17:25:08;24.70;90.60
6538;DHT22;3302;52.508;13.454;2022-08-23T17:27:36;24.70;90.60
6538;DHT22;3302;52.508;13.454;2022-08-23T17:30:08;24.70;90.80
6538;DHT22;3302;52.508;13.454;2022-08-23T17:32:38;24.70;91.00
6538;DHT22;3302;52.508;13.454;2022-08-23T17:35:08;24.60;90.90
6538;DHT22;3302;52.508;13.454;2022-08-23T17:37:35;24.60;91.40
6538;DHT22;3302;52.508;13.454;2022-08-23T17:40:05;24.50;91.70
6538;DHT22;3302;52.508;13.454;2022-08-23T17:42:31;24.40;91.80
6538;DHT22;3302;52.508;13.454;2022-08-23T17:44:57;24.40;92.10
6538;DHT22;3302;52.508;13.454;2022-08-23T17:47:23;24.40;92.40
6538;DHT22;3302;52.508;13.454;2022-08-23T17:49:49;24.30;92.10